Arlington, WA

2:36 PM PST on February 12, 2016 (GMT -0800)
Arlington Municipal | | Change Station
CLOSE
Current Station
Airport
Location: Arlington,
Elevation: 138 ft
Nearby Weather Stations

Elev 138 ft 48.16 °N, 122.16 °W | Updated 21 minutes ago

Overcast
Overcast
54 °F
Feels Like 54 °F
N
17
Wind Variable Wind from SSE
Gusts 23 mph

Today
High -- | Low -- °F
--% Chance of Precip.
Yesterday
High -- | Low -- °F
Precip. -- in
Pressure 30.10 in
Visibility 10.0 miles
Clouds Few 2600 ft
Mostly Cloudy 3600 ft
Overcast 8000 ft
Dew Point 45 °F
Humidity 72%
Rainfall 0.41 in
Snow Depth Not available.
7:20 AM 5:25 PM
Waxing Crescent, 24% visible
METAR KAWO 122215Z AUTO 15015G20KT 10SM FEW026 BKN036 OVC080 12/07 A3010 RMK AO1
Pressure 30.10 in
Visibility 10.0 miles
Clouds Few 2600 ft
Mostly Cloudy 3600 ft
Overcast 8000 ft
Dew Point 45 °F
Humidity 72%
Rainfall 0.41 in
Snow Depth Not available.
7:20 AM 5:25 PM
Waxing Crescent, 24% visible
METAR KAWO 122215Z AUTO 15015G20KT 10SM FEW026 BKN036 OVC080 12/07 A3010 RMK AO1

10-Day Weather Forecast

Almanac

Astronomy

Feb. 12, 2016 Rise Set
Actual Time
Civil Twilight
Nautical Twilight
Astronomical Twilight
Moon
Length of Visible Light
Length of Day
Tomorrow will be .
, % of the Moon is Illuminated

Today's Extremes

State Highs State Lows

Community

WunderPhotos

Upload Photos

1,892,422 photos uploaded!

WunderBlog® & News

Nearby

Air Quality

  Air Quality AQ Index Pollutant
Not available.

Snow Depth

Station Depth Elevation

Earthquake Activity

City Distance Mag. Time & Date
Minimum magnitude displayed is 2.5.

Coastal Water Temperatures

Place Temperature

Stations

Nearby Weather Stations

Station Location Temp. Windchill Dew Point Humidity Wind Precip. Elev Updated Type
                   

Watches & Warnings

There are currently no watches in effect.